首页
METAR-TAF:

METAR-TAF

机场 :

盐湖城国际机场

盐湖城, 犹他州, 美国

纬度: 40-46-41N, 经度: 111-58-10W, 海拔: 1288米

当前天气观测

该预报发布于1小时和6分钟前的10:54 UTC
风速8节,风向东南
温度 22°C
湿度 29%
气压 1013 hPa
能見度: 16.1公里
多云层高于15000英尺

METAR: KSLC 211054Z 13008KT 10SM BKN150 22/03 A2990 RMK AO2 SLP063 T02170033

时间: 06:00 (12:00 UTC)

预报

该预报发布于40分钟前的11:20 UTC
预报有效从21日的 12点(UTC)到 22日的 18点(UTC)
风速4节,风向南转南东
能見度: 10公里
少量云层高于12000英尺
散云层高于20000英尺
从 21日的 1500点(UTC)
风速11节,风向,有时为18节阵风
能見度: 10公里
少量云层高于12000英尺
散云层高于20000英尺
从 21日的 1900点(UTC)
风速12节,风向西北,有时为20节阵风
能見度: 10公里
少量云层高于7000英尺
散云层高于12000英尺
散云层高于20000英尺
从 22日的 0400点(UTC)
风速7节,风向南转南东
能見度: 10公里
散云层高于12000英尺

TAF: KSLC 211120Z 2112/2218 16004KT P6SM FEW120 SCT200 FM211500 17011G18KT P6SM FEW120 SCT200 FM211900 32012G20KT P6SM FEW070 SCT120 SCT200 FM220400 16007KT P6SM SCT120

超过4000个机场的气象观测和天气预报(METAR&TAF报告)。

可查询的气象台以黄色和红色小点在地图上表示。

将鼠标移到小点上方,可查看气象台名称。

然后点击查看天气观测和预报。

如需切换地图:点击带黑十字的绿色按钮放大地图;点击带横线的绿色按钮缩小地图;或者点击绿色箭头查看邻近地区的地图。


METAR-TAF: